Time;durP1;ratioP1;P1;durP2;ratioP2;P2;SDS_P1;SDS_P2;PMS_P1;PMS_P2;Temp;Humidity;BMP_temperature;BMP_pressure;BME280_temperature;BME280_humidity;BME280_pressure;Samples;Min_cycle;Max_cycle;Signal;HPM_P1;HPM_P2
2023/03/01 05:00:21;;;;;;;0.55;0.55;;;-1.90;99.90;;;;;;5920798;23;20598;-68
2023/03/01 05:02:52;;;;;;;1.60;1.55;;;-2.00;99.90;;;;;;4905576;29;20237;-69
2023/03/01 05:05:25;;;;;;;0.45;0.45;;;-1.90;99.90;;;;;;4896517;29;20231;-69
2023/03/01 05:07:53;;;;;;;0.40;0.40;;;-1.90;99.90;;;;;;4919792;29;20213;-69
2023/03/01 05:10:20;;;;;;;0.70;0.70;;;-2.00;99.90;;;;;;4913067;29;20686;-69
2023/03/01 05:12:47;;;;;;;1.40;1.40;;;-2.00;99.90;;;;;;4893831;29;20211;-69
2023/03/01 05:15:14;;;;;;;1.10;1.10;;;-2.00;99.90;;;;;;4905698;29;20226;-69
2023/03/01 05:17:43;;;;;;;0.80;0.80;;;-1.90;99.90;;;;;;4902338;29;20674;-69
2023/03/01 05:20:11;;;;;;;3.70;1.50;;;-2.00;99.90;;;;;;4887164;29;20302;-69
2023/03/01 05:22:38;;;;;;;2.38;2.28;;;-1.90;99.90;;;;;;4896316;29;20216;-69
2023/03/01 05:25:06;;;;;;;0.32;0.32;;;-1.90;99.90;;;;;;4897193;29;20205;-69
2023/03/01 05:27:34;;;;;;;1.25;1.15;;;-1.90;99.90;;;;;;4893878;29;20212;-69
2023/03/01 05:30:13;;;;;;;0.65;0.65;;;-1.90;99.90;;;;;;4889187;29;20208;-69
2023/03/01 05:32:43;;;;;;;1.75;1.58;;;-1.90;99.90;;;;;;4892371;29;20214;-69
2023/03/01 05:35:12;;;;;;;0.80;0.80;;;-1.80;99.90;;;;;;4885127;29;20760;-69
2023/03/01 05:37:40;;;;;;;0.50;0.50;;;-1.80;99.90;;;;;;4907089;29;20221;-70
2023/03/01 05:40:15;;;;;;;0.93;0.93;;;-1.80;99.90;;;;;;4899857;29;20216;-69
2023/03/01 05:42:45;;;;;;;1.08;1.05;;;-1.70;99.90;;;;;;4902829;29;20222;-69
2023/03/01 05:45:13;;;;;;;1.38;1.35;;;-1.70;99.90;;;;;;4892222;29;20212;-69
2023/03/01 05:47:43;;;;;;;0.52;0.52;;;-1.70;99.90;;;;;;4897231;29;20289;-69
2023/03/01 05:50:12;;;;;;;0.63;0.63;;;-1.70;99.90;;;;;;4896911;29;20208;-68
2023/03/01 05:52:39;;;;;;;5.78;1.13;;;-1.70;99.90;;;;;;4894761;29;20223;-69
2023/03/01 05:55:07;;;;;;;1.05;1.05;;;-1.60;99.90;;;;;;4890457;29;20235;-69
2023/03/01 05:57:34;;;;;;;3.40;1.85;;;-1.60;99.90;;;;;;4893413;29;20669;-69
2023/03/01 06:00:00;;;;;;;0.80;0.80;;;-1.60;99.90;;;;;;4892936;29;20234;-69
2023/03/01 06:02:29;;;;;;;0.40;0.40;;;-1.60;99.90;;;;;;4899278;29;20242;-68
2023/03/01 06:04:57;;;;;;;1.23;1.23;;;-1.50;99.90;;;;;;4898907;29;20253;-69
2023/03/01 06:07:23;;;;;;;0.63;0.63;;;-1.50;99.90;;;;;;4895968;29;20211;-69
2023/03/01 06:09:50;;;;;;;4.97;1.45;;;-1.50;99.90;;;;;;4901391;29;20210;-70
2023/03/01 06:12:17;;;;;;;2.22;2.13;;;-1.50;99.90;;;;;;4888367;29;20223;-70
2023/03/01 06:14:44;;;;;;;0.77;0.77;;;-1.50;99.90;;;;;;4899290;29;20245;-69
2023/03/01 06:17:10;;;;;;;0.75;0.75;;;-1.40;99.90;;;;;;4905331;29;20210;-69
2023/03/01 06:19:37;;;;;;;0.50;0.50;;;-1.40;99.90;;;;;;4891119;29;20223;-69
2023/03/01 06:22:05;;;;;;;0.20;0.20;;;-1.40;99.90;;;;;;4893593;29;20264;-69
2023/03/01 06:24:32;;;;;;;2.25;2.17;;;-1.40;99.90;;;;;;4893111;29;20209;-69
2023/03/01 06:27:00;;;;;;;0.50;0.50;;;-1.30;99.90;;;;;;4892391;29;20827;-69
2023/03/01 06:29:27;;;;;;;1.20;1.20;;;-1.30;99.90;;;;;;4900078;29;20256;-69
2023/03/01 06:31:54;;;;;;;0.57;0.57;;;-1.30;99.90;;;;;;4896248;29;20238;-69
2023/03/01 06:34:21;;;;;;;1.10;1.08;;;-1.30;99.90;;;;;;4887510;29;20227;-70
2023/03/01 06:36:48;;;;;;;0.50;0.40;;;-1.30;99.90;;;;;;4889304;29;20627;-69
2023/03/01 06:39:17;;;;;;;0.40;0.40;;;-1.30;99.90;;;;;;4904005;29;20235;-69
2023/03/01 06:41:44;;;;;;;1.40;1.30;;;-1.20;99.90;;;;;;4903137;29;20230;-69
2023/03/01 06:44:10;;;;;;;1.27;1.27;;;-1.20;99.90;;;;;;4889023;29;20211;-69
2023/03/01 06:46:37;;;;;;;0.55;0.55;;;-1.10;99.90;;;;;;4889041;29;20208;-69
2023/03/01 06:49:07;;;;;;;2.53;2.33;;;-1.10;99.90;;;;;;4898322;29;20640;-68
2023/03/01 06:51:34;;;;;;;1.17;1.17;;;-1.00;99.90;;;;;;4890649;29;20911;-69
2023/03/01 06:54:00;;;;;;;3.03;2.72;;;-1.00;99.90;;;;;;4892205;29;20215;-69
2023/03/01 06:56:29;;;;;;;0.80;0.80;;;-0.90;99.90;;;;;;4896572;29;20227;-69
2023/03/01 06:58:55;;;;;;;2.00;2.00;;;-0.80;99.90;;;;;;4893889;29;20211;-69
2023/03/01 07:01:22;;;;;;;1.10;1.10;;;-0.70;99.90;;;;;;4894462;29;20628;-68
2023/03/01 07:03:49;;;;;;;1.83;1.73;;;-0.70;99.90;;;;;;4893785;29;20211;-68
2023/03/01 07:06:15;;;;;;;31.73;18.88;;;-0.70;99.90;;;;;;4899843;29;20219;-69
2023/03/01 07:08:42;;;;;;;6.40;5.78;;;-0.70;99.90;;;;;;4893019;29;20226;-69
2023/03/01 07:11:09;;;;;;;3.30;3.10;;;-0.60;99.90;;;;;;4909864;29;20242;-69
2023/03/01 07:13:37;;;;;;;0.80;0.80;;;-0.50;99.90;;;;;;4889409;29;20219;-68
2023/03/01 07:16:04;;;;;;;1.20;1.20;;;-0.50;99.90;;;;;;4898576;29;20242;-69
2023/03/01 07:18:31;;;;;;;1.90;1.90;;;-0.40;99.90;;;;;;4891595;29;20688;-68
2023/03/01 07:20:58;;;;;;;1.58;1.42;;;-0.30;99.90;;;;;;4901214;29;20231;-68
2023/03/01 07:23:24;;;;;;;1.45;1.30;;;-0.30;99.90;;;;;;4896856;29;20664;-69
2023/03/01 07:25:55;;;;;;;1.60;1.35;;;-0.20;99.90;;;;;;4896211;29;20668;-68
2023/03/01 07:28:23;;;;;;;0.95;0.95;;;-0.10;99.90;;;;;;4895164;29;20207;-69
2023/03/01 07:30:51;;;;;;;1.73;1.63;;;-0.10;99.90;;;;;;4900787;29;20242;-68
2023/03/01 07:33:18;;;;;;;0.90;0.90;;;0.00;99.90;;;;;;4895350;29;20209;-69
2023/03/01 07:35:45;;;;;;;1.30;1.30;;;0.10;99.90;;;;;;4887116;29;20238;-69
2023/03/01 07:38:11;;;;;;;0.82;0.82;;;0.20;99.90;;;;;;4901721;29;20208;-69
2023/03/01 07:40:38;;;;;;;0.95;0.95;;;0.20;99.90;;;;;;4895872;29;20246;-69
2023/03/01 07:43:05;;;;;;;0.73;0.70;;;0.30;99.90;;;;;;4901262;29;20340;-69
2023/03/01 07:45:32;;;;;;;1.60;1.60;;;0.40;99.90;;;;;;4897201;29;20210;-69
2023/03/01 07:48:00;;;;;;;2.22;1.23;;;0.50;99.90;;;;;;4895444;29;20218;-69
2023/03/01 07:50:26;;;;;;;3.10;1.58;;;0.60;99.90;;;;;;4891323;29;20207;-70
2023/03/01 07:52:53;;;;;;;2.03;2.03;;;0.70;99.90;;;;;;4898472;29;20218;-69
2023/03/01 07:55:20;;;;;;;4.32;1.45;;;0.80;99.90;;;;;;4897853;29;20319;-70
2023/03/01 07:57:47;;;;;;;4.25;2.60;;;0.90;99.90;;;;;;4892687;29;20244;-70
2023/03/01 08:00:14;;;;;;;1.42;1.42;;;1.00;99.90;;;;;;4884477;29;20227;-69
2023/03/01 08:02:41;;;;;;;1.13;1.00;;;1.00;99.90;;;;;;4893759;29;20218;-69
2023/03/01 08:05:10;;;;;;;1.88;1.85;;;1.10;99.90;;;;;;4886353;29;20654;-69
2023/03/01 08:07:36;;;;;;;1.73;1.63;;;1.20;99.90;;;;;;4897176;29;20210;-68
2023/03/01 08:10:04;;;;;;;1.42;1.33;;;1.20;99.90;;;;;;4883151;29;20252;-68
2023/03/01 08:12:30;;;;;;;1.58;1.52;;;1.30;99.90;;;;;;4899281;29;20223;-67
2023/03/01 08:14:57;;;;;;;4.95;4.55;;;1.40;99.90;;;;;;4883151;29;20231;-68
2023/03/01 08:17:24;;;;;;;2.63;2.53;;;1.40;99.90;;;;;;4895085;29;20211;-68
2023/03/01 08:19:51;;;;;;;1.20;1.20;;;1.40;99.90;;;;;;4892501;29;20280;-68
2023/03/01 08:22:19;;;;;;;3.15;2.95;;;1.50;99.90;;;;;;4893979;29;20703;-68
2023/03/01 08:24:46;;;;;;;1.48;1.48;;;1.60;99.90;;;;;;4894937;29;20222;-68
2023/03/01 08:27:13;;;;;;;5.68;3.80;;;1.60;99.90;;;;;;4894755;29;20579;-68
2023/03/01 08:29:39;;;;;;;2.15;2.05;;;1.80;99.90;;;;;;4888085;29;20274;-69
2023/03/01 08:32:06;;;;;;;1.58;1.48;;;1.90;99.90;;;;;;4898663;29;20253;-69
2023/03/01 08:34:35;;;;;;;2.15;2.10;;;2.00;99.90;;;;;;4884046;29;20223;-70
2023/03/01 08:37:02;;;;;;;2.35;2.20;;;2.10;99.90;;;;;;4893410;29;20291;-69
2023/03/01 08:39:30;;;;;;;2.00;1.90;;;2.10;99.90;;;;;;4894977;29;20432;-69
2023/03/01 08:41:58;;;;;;;1.02;1.02;;;2.20;99.90;;;;;;4888338;29;20229;-69
2023/03/01 08:44:25;;;;;;;2.63;2.25;;;2.30;99.90;;;;;;4888625;29;20211;-69
2023/03/01 08:46:53;;;;;;;1.67;1.58;;;2.40;99.90;;;;;;4890102;29;20204;-69
2023/03/01 08:49:20;;;;;;;1.70;1.40;;;2.40;99.90;;;;;;4888718;29;20329;-70
2023/03/01 08:51:48;;;;;;;1.98;1.98;;;2.50;99.90;;;;;;4892266;29;20839;-69
2023/03/01 08:54:16;;;;;;;1.90;1.90;;;2.70;99.90;;;;;;4895179;29;20215;-69
2023/03/01 08:56:45;;;;;;;2.30;2.20;;;2.80;99.90;;;;;;4894151;29;20265;-69
2023/03/01 08:59:12;;;;;;;3.45;1.25;;;2.90;99.90;;;;;;4887474;29;20290;-69
2023/03/01 09:01:40;;;;;;;1.38;1.33;;;3.10;99.90;;;;;;4895618;29;20243;-69
2023/03/01 09:04:06;;;;;;;2.33;2.10;;;3.10;99.90;;;;;;4887633;29;20216;-69
2023/03/01 09:06:34;;;;;;;0.95;0.95;;;3.30;99.90;;;;;;4894127;29;20223;-69
2023/03/01 09:09:02;;;;;;;1.65;1.65;;;3.40;99.90;;;;;;4892009;29;20215;-69
2023/03/01 09:11:30;;;;;;;2.17;1.40;;;3.50;99.90;;;;;;4900134;29;20227;-70
2023/03/01 09:13:58;;;;;;;2.42;2.22;;;3.70;99.90;;;;;;4895618;29;20284;-69
2023/03/01 09:16:25;;;;;;;2.33;2.22;;;3.80;99.90;;;;;;4885874;29;20276;-68
2023/03/01 09:18:53;;;;;;;2.10;2.03;;;3.90;99.90;;;;;;4893662;29;20295;-71
2023/03/01 09:21:21;;;;;;;2.63;2.45;;;3.90;99.90;;;;;;4898926;29;20223;-73
2023/03/01 09:23:49;;;;;;;8.60;4.53;;;4.00;99.90;;;;;;4897715;29;20214;-67
2023/03/01 09:26:18;;;;;;;8.85;5.15;;;4.00;99.90;;;;;;4886824;29;20215;-68
2023/03/01 09:28:46;;;;;;;3.67;3.47;;;4.10;99.90;;;;;;4897592;29;20285;-70
2023/03/01 09:31:16;;;;;;;7.97;2.95;;;4.20;99.90;;;;;;4898134;29;20594;-70
2023/03/01 09:33:43;;;;;;;2.13;2.03;;;4.30;99.90;;;;;;4903184;29;20217;-69
2023/03/01 09:36:13;;;;;;;3.45;1.75;;;4.40;99.90;;;;;;4889955;29;20227;-70
2023/03/01 09:38:40;;;;;;;3.38;3.17;;;4.50;99.90;;;;;;4904994;29;20221;-70
2023/03/01 09:41:20;;;;;;;4.60;2.10;;;4.50;99.90;;;;;;4895790;29;20337;-70
2023/03/01 09:43:53;;;;;;;2.60;2.17;;;4.60;99.90;;;;;;4904120;29;20688;-70
2023/03/01 09:46:24;;;;;;;4.45;4.15;;;4.70;99.90;;;;;;4894332;29;20214;-71
2023/03/01 09:48:56;;;;;;;2.90;2.70;;;4.70;99.90;;;;;;4888483;29;20220;-69
2023/03/01 09:51:28;;;;;;;2.85;2.58;;;4.70;99.90;;;;;;4885228;29;20231;-69
2023/03/01 09:53:56;;;;;;;2.25;2.08;;;4.80;99.90;;;;;;4894193;29;20211;-69
2023/03/01 09:56:30;;;;;;;4.55;3.83;;;5.00;99.90;;;;;;4890325;29;20268;-69
2023/03/01 09:59:04;;;;;;;6.28;3.47;;;5.00;99.90;;;;;;4885846;29;20203;-69
2023/03/01 10:01:37;;;;;;;3.97;3.20;;;5.00;99.90;;;;;;4898072;29;20359;-69
2023/03/01 10:04:27;;;;;;;3.40;3.10;;;5.00;99.90;;;;;;4900212;29;20211;-69
2023/03/01 10:07:13;;;;;;;3.13;2.65;;;5.10;99.90;;;;;;4893813;29;20211;-68
2023/03/01 10:09:41;;;;;;;4.53;4.13;;;5.20;99.90;;;;;;4883176;29;20577;-68
2023/03/01 10:12:12;;;;;;;4.38;3.00;;;5.30;99.90;;;;;;4887373;29;20250;-68
2023/03/01 10:14:46;;;;;;;4.47;2.67;;;5.40;99.90;;;;;;4884902;29;20208;-69
2023/03/01 10:17:25;;;;;;;4.63;3.78;;;5.50;99.90;;;;;;4895082;29;20235;-69
2023/03/01 10:19:51;;;;;;;3.65;2.30;;;5.60;99.90;;;;;;4889298;29;20208;-68
2023/03/01 10:22:21;;;;;;;3.67;3.13;;;5.70;99.90;;;;;;4889587;29;20228;-68
2023/03/01 10:24:49;;;;;;;4.10;3.85;;;5.70;99.90;;;;;;4895320;29;20217;-69
2023/03/01 10:27:23;;;;;;;5.47;2.88;;;5.80;99.90;;;;;;4896434;29;20240;-69
2023/03/01 10:29:57;;;;;;;2.15;2.05;;;5.90;99.90;;;;;;4888960;29;20792;-70
2023/03/01 10:32:25;;;;;;;2.53;2.40;;;6.00;99.90;;;;;;4889289;29;20228;-67
2023/03/01 10:34:52;;;;;;;4.13;2.33;;;6.10;99.90;;;;;;4891269;29;20242;-69
2023/03/01 10:37:21;;;;;;;2.92;2.70;;;6.20;99.90;;;;;;4887610;29;20255;-69
2023/03/01 10:39:59;;;;;;;9.07;2.65;;;6.30;99.90;;;;;;4905696;29;20594;-68
2023/03/01 10:42:31;;;;;;;3.03;2.80;;;6.30;99.90;;;;;;4894551;29;20353;-69
2023/03/01 10:44:59;;;;;;;3.42;3.17;;;6.30;99.90;;;;;;4896464;29;20357;-68
2023/03/01 10:47:28;;;;;;;2.20;2.17;;;6.50;99.90;;;;;;4890257;29;20567;-70
2023/03/01 10:50:01;;;;;;;2.17;1.92;;;6.50;99.90;;;;;;4903043;29;20242;-69
2023/03/01 10:52:32;;;;;;;2.45;2.10;;;6.60;99.90;;;;;;4890190;29;20219;-69
2023/03/01 10:55:01;;;;;;;5.50;2.40;;;6.70;99.90;;;;;;4898254;29;20204;-69
2023/03/01 10:57:37;;;;;;;3.65;3.45;;;6.70;99.90;;;;;;4882832;29;20689;-70
2023/03/01 11:00:22;;;;;;;7.07;6.45;;;6.80;99.90;;;;;;4897144;29;20277;-70
2023/03/01 11:02:52;;;;;;;6.60;5.63;;;6.80;99.90;;;;;;4898629;29;20217;-69
2023/03/01 11:05:23;;;;;;;5.88;4.22;;;6.70;99.90;;;;;;4889686;29;20212;-70
2023/03/01 11:07:52;;;;;;;2.47;2.38;;;6.70;99.90;;;;;;4887535;29;20212;-70
2023/03/01 11:10:21;;;;;;;3.83;3.47;;;6.60;99.90;;;;;;4900078;29;20227;-67
2023/03/01 11:12:48;;;;;;;1.55;1.45;;;6.60;99.90;;;;;;4885534;29;20208;-70
2023/03/01 11:15:24;;;;;;;5.97;3.00;;;6.60;99.90;;;;;;4889101;29;20691;-69
2023/03/01 11:17:53;;;;;;;22.90;3.00;;;6.50;99.90;;;;;;4932484;23;20289;-68
2023/03/01 11:20:26;;;;;;;8.02;3.35;;;6.50;99.90;;;;;;4931019;29;20202;-69
2023/03/01 11:22:56;;;;;;;6.03;3.85;;;6.50;99.90;;;;;;4934057;29;20210;-69
2023/03/01 11:25:26;;;;;;;4.22;2.90;;;6.60;99.90;;;;;;4929772;29;20718;-70
2023/03/01 11:27:55;;;;;;;2.85;2.63;;;6.60;99.90;;;;;;4917874;29;20354;-69
2023/03/01 11:30:27;;;;;;;4.53;4.07;;;6.70;99.90;;;;;;4932113;29;20206;-69
2023/03/01 11:33:04;;;;;;;2.58;2.47;;;6.80;99.90;;;;;;4926055;29;20211;-69
2023/03/01 11:35:33;;;;;;;4.63;2.55;;;6.90;99.90;;;;;;4928005;29;20205;-69
2023/03/01 11:38:14;;;;;;;3.58;3.35;;;7.00;99.90;;;;;;4931541;29;20375;-69
2023/03/01 11:40:47;;;;;;;2.65;2.40;;;7.00;99.90;;;;;;4919893;29;20213;-69
2023/03/01 11:43:24;;;;;;;5.32;3.70;;;7.10;99.90;;;;;;4920886;29;20622;-69
2023/03/01 11:46:20;;;;;;;4.30;3.50;;;7.10;99.90;;;;;;4919629;29;20211;-71
2023/03/01 11:48:58;;;;;;;2.50;2.20;;;7.20;99.90;;;;;;4925290;29;20209;-69
2023/03/01 11:51:40;;;;;;;3.53;2.70;;;7.10;99.90;;;;;;4933050;29;20218;-69
2023/03/01 11:54:19;;;;;;;4.07;3.72;;;7.20;99.90;;;;;;4931728;29;20217;-68
2023/03/01 11:56:51;;;;;;;3.35;3.05;;;7.30;99.90;;;;;;4927879;29;20237;-69
2023/03/01 11:59:44;;;;;;;4.72;4.28;;;7.30;99.90;;;;;;4927339;29;20209;-69
2023/03/01 12:02:51;;;;;;;3.65;3.40;;;7.30;99.90;;;;;;4921337;29;20206;-69
2023/03/01 12:05:29;;;;;;;3.97;3.65;;;7.40;99.90;;;;;;4921893;29;20206;-68
2023/03/01 12:08:05;;;;;;;7.75;2.72;;;7.50;99.90;;;;;;4924901;29;20238;-69
2023/03/01 12:10:38;;;;;;;3.50;2.25;;;7.50;99.90;;;;;;4925351;29;20213;-68
2023/03/01 12:13:23;;;;;;;3.15;2.95;;;7.50;99.90;;;;;;4926168;29;20213;-69
2023/03/01 12:16:09;;;;;;;3.80;2.65;;;7.50;99.90;;;;;;4926383;29;20221;-69
2023/03/01 12:19:01;;;;;;;5.43;2.92;;;7.60;99.90;;;;;;4929130;29;20211;-70
2023/03/01 12:21:40;;;;;;;4.60;2.75;;;7.60;99.90;;;;;;4917940;29;20221;-69
2023/03/01 12:24:29;;;;;;;3.47;3.17;;;7.70;99.90;;;;;;4928475;29;20206;-69
2023/03/01 12:27:12;;;;;;;9.10;3.30;;;7.70;99.90;;;;;;4924717;29;20221;-69
2023/03/01 12:29:48;;;;;;;2.97;2.45;;;7.80;99.90;;;;;;4926127;29;20206;-68
2023/03/01 12:32:36;;;;;;;3.60;2.60;;;7.80;99.90;;;;;;4927909;29;20715;-69
2023/03/01 12:35:30;;;;;;;20.48;2.95;;;7.80;99.90;;;;;;4924850;29;20210;-70
2023/03/01 12:38:11;;;;;;;3.45;2.15;;;7.80;99.90;;;;;;4923151;29;20351;-69
2023/03/01 12:41:05;;;;;;;5.68;2.53;;;7.80;99.90;;;;;;4923524;29;20203;-68
2023/03/01 12:43:47;;;;;;;2.45;2.30;;;7.80;99.90;;;;;;4926826;29;20572;-69
2023/03/01 12:46:26;;;;;;;3.67;3.42;;;7.80;99.90;;;;;;4928271;29;20241;-69
2023/03/01 12:49:03;;;;;;;3.33;2.35;;;7.80;99.90;;;;;;4926941;29;20221;-69
2023/03/01 12:51:33;;;;;;;4.40;3.25;;;7.80;99.90;;;;;;4927771;29;20209;-69
2023/03/01 12:54:06;;;;;;;1.67;1.58;;;7.80;99.90;;;;;;4933730;29;20212;-69
2023/03/01 12:56:35;;;;;;;4.10;3.72;;;7.80;99.90;;;;;;4918787;29;20466;-69
2023/03/01 12:59:12;;;;;;;3.58;3.28;;;7.90;99.90;;;;;;4921213;29;20206;-70
2023/03/01 13:01:49;;;;;;;6.90;5.05;;;7.90;99.90;;;;;;4927639;29;20216;-69
2023/03/01 13:04:26;;;;;;;3.47;3.25;;;8.00;99.90;;;;;;4932410;29;20220;-69
2023/03/01 13:07:03;;;;;;;4.50;4.22;;;8.00;99.90;;;;;;4933936;29;20687;-69
2023/03/01 13:09:38;;;;;;;2.22;2.13;;;8.10;99.90;;;;;;4933892;29;20213;-69
2023/03/01 13:12:33;;;;;;;6.50;4.93;;;8.20;99.90;;;;;;4933782;29;20209;-70
2023/03/01 13:15:01;;;;;;;13.75;4.55;;;8.20;99.90;;;;;;4929057;29;20211;-70
2023/03/01 13:17:33;;;;;;;4.53;4.13;;;8.20;99.90;;;;;;4922343;29;20237;-70
2023/03/01 13:20:00;;;;;;;2.38;2.28;;;8.20;99.90;;;;;;4914405;29;20251;-70
2023/03/01 13:22:32;;;;;;;2.35;2.17;;;8.20;99.90;;;;;;4914948;29;20309;-70
2023/03/01 13:25:03;;;;;;;5.22;3.45;;;8.20;99.90;;;;;;4914320;29;20257;-70
2023/03/01 13:27:32;;;;;;;5.32;4.78;;;8.20;99.90;;;;;;4914176;29;20637;-69
2023/03/01 13:30:03;;;;;;;6.10;3.80;;;8.30;99.90;;;;;;4920412;29;20293;-69
2023/03/01 13:32:33;;;;;;;7.70;4.68;;;8.30;99.90;;;;;;4922032;29;20213;-70
2023/03/01 13:35:01;;;;;;;5.72;3.75;;;8.40;99.90;;;;;;4914091;29;20214;-69
2023/03/01 13:37:33;;;;;;;4.85;3.58;;;8.50;99.90;;;;;;4916614;29;20230;-69
2023/03/01 13:40:05;;;;;;;5.00;4.20;;;8.50;99.90;;;;;;4925810;29;20209;-71
2023/03/01 13:42:37;;;;;;;3.13;2.90;;;8.50;99.90;;;;;;4933247;29;20210;-68
2023/03/01 13:45:05;;;;;;;4.00;3.38;;;8.40;99.90;;;;;;4933069;29;20293;-69
2023/03/01 13:47:40;;;;;;;4.78;3.13;;;8.30;99.90;;;;;;4933411;29;20229;-69
2023/03/01 13:50:07;;;;;;;3.45;3.15;;;8.30;99.90;;;;;;4933498;29;20213;-69
2023/03/01 13:52:41;;;;;;;2.55;2.30;;;8.30;99.90;;;;;;4933380;29;20213;-69
2023/03/01 13:55:19;;;;;;;6.70;4.18;;;8.30;99.90;;;;;;4935668;29;20206;-69
2023/03/01 13:57:53;;;;;;;5.63;3.17;;;8.30;99.90;;;;;;4919467;29;20234;-69
2023/03/01 14:00:35;;;;;;;4.18;3.33;;;8.30;99.90;;;;;;4919635;29;20237;-68
2023/03/01 14:03:11;;;;;;;4.43;2.80;;;8.40;99.90;;;;;;4925103;29;20210;-69
2023/03/01 14:05:39;;;;;;;10.18;4.07;;;8.40;99.90;;;;;;4917851;29;20668;-69
2023/03/01 14:08:19;;;;;;;3.30;3.00;;;8.30;99.90;;;;;;4917606;29;20227;-69
2023/03/01 14:10:55;;;;;;;4.53;4.22;;;8.40;99.90;;;;;;4925468;29;20561;-69
2023/03/01 14:13:44;;;;;;;3.85;3.42;;;8.40;99.90;;;;;;4933109;29;20202;-69
2023/03/01 14:16:24;;;;;;;4.70;3.70;;;8.50;99.90;;;;;;4930579;29;20690;-70
2023/03/01 14:19:01;;;;;;;14.40;3.35;;;8.50;99.90;;;;;;4938085;29;20269;-68
2023/03/01 14:21:28;;;;;;;3.50;3.30;;;8.50;99.90;;;;;;4938024;29;20674;-70
2023/03/01 14:23:55;;;;;;;4.30;4.00;;;8.50;99.90;;;;;;4938627;29;20214;-70
2023/03/01 14:26:23;;;;;;;4.38;3.97;;;8.60;99.90;;;;;;4938512;29;20230;-70
2023/03/01 14:28:51;;;;;;;5.03;4.57;;;8.50;99.90;;;;;;4928760;29;20591;-69
2023/03/01 14:31:35;;;;;;;4.70;4.18;;;8.50;99.90;;;;;;4919095;29;20237;-70
2023/03/01 14:34:04;;;;;;;2.75;2.60;;;8.60;99.90;;;;;;4920422;29;20601;-69
2023/03/01 14:36:32;;;;;;;4.13;3.33;;;8.50;99.90;;;;;;4920292;29;20223;-69
2023/03/01 14:39:04;;;;;;;4.05;3.75;;;8.40;99.90;;;;;;4930622;29;20229;-69
2023/03/01 14:41:34;;;;;;;2.72;2.45;;;8.40;99.90;;;;;;4930421;29;20207;-69
2023/03/01 14:44:04;;;;;;;2.95;2.67;;;8.40;99.90;;;;;;4927011;29;20206;-69
2023/03/01 14:46:34;;;;;;;4.18;2.22;;;8.50;99.90;;;;;;4918444;29;20227;-69
2023/03/01 14:49:06;;;;;;;5.63;4.95;;;8.50;99.90;;;;;;4919020;29;20572;-69
2023/03/01 14:51:37;;;;;;;6.97;2.80;;;8.60;99.90;;;;;;4918821;29;20265;-69
2023/03/01 14:54:06;;;;;;;5.82;3.60;;;8.50;99.90;;;;;;4918918;29;20214;-69
2023/03/01 14:56:45;;;;;;;2.80;2.80;;;8.50;99.90;;;;;;4924181;29;20292;-69
2023/03/01 14:59:12;;;;;;;2.30;2.20;;;8.50;99.90;;;;;;4928976;29;20253;-69
2023/03/01 15:01:40;;;;;;;2.10;1.73;;;8.50;99.90;;;;;;4934349;29;20209;-69
2023/03/01 15:04:13;;;;;;;4.03;3.72;;;8.50;99.90;;;;;;4937847;29;20669;-69
2023/03/01 15:06:40;;;;;;;2.88;2.67;;;8.40;99.90;;;;;;4938085;29;20305;-69
2023/03/01 15:09:08;;;;;;;4.97;4.78;;;8.40;99.90;;;;;;4937947;29;20212;-69
2023/03/01 15:11:36;;;;;;;5.80;3.92;;;8.40;99.90;;;;;;4937367;29;20206;-69
2023/03/01 15:14:26;;;;;;;3.10;2.90;;;8.40;99.90;;;;;;4933412;29;20209;-69
2023/03/01 15:16:53;;;;;;;2.83;2.65;;;8.40;99.90;;;;;;4920241;29;20234;-69
2023/03/01 15:19:24;;;;;;;2.88;2.72;;;8.40;99.90;;;;;;4918367;29;20610;-69
2023/03/01 15:21:51;;;;;;;3.03;1.98;;;8.40;99.90;;;;;;4918574;29;20574;-69
2023/03/01 15:24:23;;;;;;;5.90;4.40;;;8.40;99.90;;;;;;4918306;29;20221;-68
2023/03/01 15:26:55;;;;;;;2.63;2.47;;;8.30;99.90;;;;;;4920947;29;20242;-69
2023/03/01 15:29:24;;;;;;;4.05;3.42;;;8.30;99.90;;;;;;4929892;29;20213;-69
2023/03/01 15:31:59;;;;;;;3.38;2.30;;;8.30;99.90;;;;;;4920401;29;20213;-69
2023/03/01 15:34:29;;;;;;;5.20;3.80;;;8.30;99.90;;;;;;4918963;29;20247;-70
2023/03/01 15:36:58;;;;;;;10.38;2.88;;;8.40;99.90;;;;;;4916777;29;20234;-70
2023/03/01 15:39:38;;;;;;;1.63;1.58;;;8.30;99.90;;;;;;4916326;29;20206;-69
2023/03/01 15:42:06;;;;;;;5.45;2.58;;;8.30;99.90;;;;;;4923110;29;20261;-68
2023/03/01 15:44:35;;;;;;;3.58;3.13;;;8.20;99.90;;;;;;4926610;29;20641;-69
2023/03/01 15:47:02;;;;;;;4.18;2.85;;;8.20;99.90;;;;;;4915543;29;20231;-69
2023/03/01 15:49:37;;;;;;;4.68;3.28;;;8.20;99.90;;;;;;4915777;29;20218;-69
2023/03/01 15:52:04;;;;;;;2.63;2.47;;;8.20;99.90;;;;;;4915796;29;20218;-69
2023/03/01 15:54:31;;;;;;;5.15;4.70;;;8.20;99.90;;;;;;4915162;29;20214;-69
2023/03/01 15:56:57;;;;;;;2.05;1.92;;;8.20;99.90;;;;;;4922918;29;20249;-69
2023/03/01 15:59:24;;;;;;;2.63;2.45;;;8.10;99.90;;;;;;4927402;29;20240;-69
2023/03/01 16:01:52;;;;;;;4.32;3.17;;;8.00;99.90;;;;;;4925035;29;20301;-69
2023/03/01 16:04:22;;;;;;;3.45;3.15;;;8.00;99.90;;;;;;4921109;29;20233;-69
2023/03/01 16:06:53;;;;;;;6.28;4.20;;;7.90;99.90;;;;;;4924897;29;20226;-69
2023/03/01 16:09:22;;;;;;;5.18;2.90;;;7.90;99.90;;;;;;4915330;29;20242;-69
2023/03/01 16:11:48;;;;;;;3.25;2.55;;;7.80;99.90;;;;;;4915399;29;20296;-69
2023/03/01 16:14:16;;;;;;;2.30;2.20;;;7.80;99.90;;;;;;4924675;29;20241;-69
2023/03/01 16:16:43;;;;;;;5.10;3.28;;;7.70;99.90;;;;;;4925403;29;20234;-69
2023/03/01 16:19:10;;;;;;;3.35;2.65;;;7.70;99.90;;;;;;4915877;29;20237;-69
2023/03/01 16:21:38;;;;;;;5.57;2.75;;;7.60;99.90;;;;;;4915748;29;20210;-69
2023/03/01 16:24:07;;;;;;;2.45;2.35;;;7.50;99.90;;;;;;4915178;29;20217;-70
2023/03/01 16:26:34;;;;;;;6.00;3.53;;;7.50;99.90;;;;;;4915065;29;20238;-70
2023/03/01 16:29:01;;;;;;;2.80;2.60;;;7.40;99.90;;;;;;4919494;29;20564;-70
2023/03/01 16:31:28;;;;;;;2.35;2.35;;;7.40;99.90;;;;;;4933738;29;20578;-69
2023/03/01 16:33:55;;;;;;;3.10;2.85;;;7.30;99.90;;;;;;4915863;29;20214;-70
2023/03/01 16:36:24;;;;;;;4.70;2.60;;;7.20;99.90;;;;;;4928434;29;20226;-70
2023/03/01 16:38:51;;;;;;;3.38;3.13;;;7.30;99.90;;;;;;4916304;29;20274;-70
2023/03/01 16:41:21;;;;;;;2.58;2.40;;;7.20;99.90;;;;;;4914127;29;20211;-70
2023/03/01 16:43:49;;;;;;;6.65;3.97;;;7.20;99.90;;;;;;4921947;29;20226;-70
2023/03/01 16:46:18;;;;;;;3.78;2.83;;;7.20;99.90;;;;;;4930305;29;20245;-70
2023/03/01 16:48:46;;;;;;;4.15;3.63;;;7.10;99.90;;;;;;4928371;29;20660;-70
2023/03/01 16:51:13;;;;;;;4.30;2.72;;;7.10;99.90;;;;;;4926361;29;20236;-70
2023/03/01 16:53:40;;;;;;;7.50;3.58;;;6.90;99.90;;;;;;4926358;29;20217;-70
2023/03/01 16:56:10;;;;;;;4.22;4.03;;;6.90;99.90;;;;;;4926645;29;20226;-70
2023/03/01 16:58:40;;;;;;;2.40;2.20;;;6.80;99.90;;;;;;4922479;29;20229;-70
2023/03/01 17:01:09;;;;;;;5.22;3.28;;;6.70;99.90;;;;;;4926652;29;20239;-71
2023/03/01 17:03:36;;;;;;;10.35;4.35;;;6.60;99.90;;;;;;4921180;29;20221;-70
2023/03/01 17:06:04;;;;;;;4.32;3.75;;;6.40;99.90;;;;;;4925286;29;20209;-70
2023/03/01 17:08:31;;;;;;;3.00;2.80;;;6.30;99.90;;;;;;4922438;29;20198;-70
2023/03/01 17:11:04;;;;;;;6.63;3.88;;;6.20;99.90;;;;;;4930365;29;20262;-71
2023/03/01 17:13:31;;;;;;;5.28;4.82;;;6.10;99.90;;;;;;4921221;29;20281;-70
2023/03/01 17:15:59;;;;;;;3.10;2.90;;;6.00;99.90;;;;;;4927316;29;20620;-71
2023/03/01 17:18:25;;;;;;;5.63;2.88;;;5.90;99.90;;;;;;4917347;29;20223;-69
2023/03/01 17:20:52;;;;;;;3.30;2.90;;;5.90;99.90;;;;;;4923297;29;20222;-70
2023/03/01 17:23:19;;;;;;;3.38;3.20;;;5.90;99.90;;;;;;4927073;29;20210;-69
2023/03/01 17:25:46;;;;;;;4.53;2.95;;;6.00;99.90;;;;;;4927542;29;20209;-70
2023/03/01 17:28:14;;;;;;;2.55;2.38;;;6.00;99.90;;;;;;4925863;29;20202;-69
2023/03/01 17:30:43;;;;;;;3.50;3.20;;;6.10;99.90;;;;;;4927322;29;20305;-69
2023/03/01 17:33:12;;;;;;;2.85;2.65;;;6.10;99.90;;;;;;4935199;29;20288;-69
2023/03/01 17:35:38;;;;;;;1.80;1.27;;;6.10;99.90;;;;;;4922978;29;20206;-69
2023/03/01 17:38:06;;;;;;;2.58;2.00;;;6.10;99.90;;;;;;4930798;29;20221;-69
2023/03/01 17:40:34;;;;;;;2.15;1.63;;;6.00;99.90;;;;;;4928196;29;20217;-69
2023/03/01 17:43:02;;;;;;;2.65;2.45;;;6.00;99.90;;;;;;4927445;29;20638;-69
2023/03/01 17:45:28;;;;;;;3.15;3.05;;;6.00;99.90;;;;;;4929109;29;20212;-69
2023/03/01 17:47:55;;;;;;;2.42;2.22;;;5.90;99.90;;;;;;4934301;29;20225;-69
2023/03/01 17:50:23;;;;;;;2.47;2.38;;;5.90;99.90;;;;;;4930784;29;20198;-69
2023/03/01 17:52:50;;;;;;;3.22;2.88;;;5.80;99.90;;;;;;4916649;29;20214;-70
2023/03/01 17:55:17;;;;;;;3.30;2.25;;;5.80;99.90;;;;;;4918912;29;20241;-70
2023/03/01 17:57:43;;;;;;;1.20;1.20;;;5.80;99.90;;;;;;4931525;29;20238;-70
2023/03/01 18:00:13;;;;;;;7.75;2.60;;;5.80;99.90;;;;;;4928423;29;20207;-70
2023/03/01 18:02:40;;;;;;;3.75;2.25;;;5.70;99.90;;;;;;4929012;29;20245;-70
2023/03/01 18:05:07;;;;;;;2.38;2.25;;;5.70;99.90;;;;;;4921115;29;20225;-68
2023/03/01 18:07:36;;;;;;;2.80;2.80;;;5.60;99.90;;;;;;4929187;29;20230;-69
2023/03/01 18:10:03;;;;;;;1.90;1.85;;;5.60;99.90;;;;;;4928231;29;20287;-69
2023/03/01 18:12:30;;;;;;;3.05;2.85;;;5.60;99.90;;;;;;4927904;29;20214;-69